Time;durP1;ratioP1;P1;durP2;ratioP2;P2;SDS_P1;SDS_P2;PMS_P1;PMS_P2;Temp;Humidity;BMP_temperature;BMP_pressure;BME280_temperature;BME280_humidity;BME280_pressure;Samples;Min_cycle;Max_cycle;Signal;HPM_P1;HPM_P2
2023/07/11 03:47:48;;;;;;;21.40;15.40;;;;;;;17.85;100.00;100700.36;222329;1264;109705;-88
2023/07/11 03:52:49;;;;;;;22.50;14.40;;;;;;;17.86;100.00;100696.45;221489;1265;142390;-88
2023/07/11 03:57:49;;;;;;;20.50;12.50;;;;;;;17.87;100.00;100696.98;221952;1266;139337;-88
2023/07/11 04:02:56;;;;;;;26.80;16.40;;;;;;;17.90;100.00;100698.30;221523;1266;142584;-88
2023/07/11 04:07:57;;;;;;;24.20;16.50;;;;;;;17.93;100.00;100697.14;222184;1265;140376;-89
2023/07/11 04:12:58;;;;;;;26.90;14.90;;;;;;;17.94;100.00;100696.73;221346;1266;142605;-89
2023/07/11 04:17:58;;;;;;;25.90;16.20;;;;;;;17.97;100.00;100699.07;222195;1266;139527;-90
2023/07/11 04:22:59;;;;;;;24.00;15.80;;;;;;;18.00;100.00;100706.67;221596;1264;140242;-89
2023/07/11 04:27:59;;;;;;;21.10;14.00;;;;;;;18.03;100.00;100700.81;221725;1265;98319;-88
2023/07/11 04:33:00;;;;;;;24.90;15.10;;;;;;;18.06;100.00;100709.77;221011;1269;140836;-87
2023/07/11 04:38:00;;;;;;;27.30;15.50;;;;;;;18.08;100.00;100716.33;221965;1266;139893;-89
2023/07/11 04:43:01;;;;;;;23.20;15.80;;;;;;;18.13;100.00;100710.92;221424;1268;145515;-89
2023/07/11 04:48:02;;;;;;;23.50;15.10;;;;;;;18.17;100.00;100716.27;221910;1265;139530;-90
2023/07/11 04:53:03;;;;;;;23.10;14.90;;;;;;;18.21;100.00;100720.10;221360;1264;140432;-89
2023/07/11 04:58:03;;;;;;;24.20;15.10;;;;;;;18.26;100.00;100721.87;222015;1265;97919;-90
2023/07/11 05:03:04;;;;;;;21.50;14.10;;;;;;;18.36;100.00;100719.82;221630;1264;140558;-92
2023/07/11 05:08:04;;;;;;;24.50;14.70;;;;;;;18.46;100.00;100721.65;221858;1266;139402;-88
2023/07/11 05:13:04;;;;;;;19.10;11.90;;;;;;;18.54;100.00;100713.48;221399;1266;140364;-88
2023/07/11 05:18:05;;;;;;;19.90;14.20;;;;;;;18.63;100.00;100722.32;221868;1264;139688;-86
2023/07/11 05:23:06;;;;;;;22.20;14.20;;;;;;;18.76;100.00;100724.01;221406;1266;140704;-85
2023/07/11 05:28:06;;;;;;;18.00;12.40;;;;;;;18.89;100.00;100727.30;222031;1264;98278;-90
2023/07/11 05:33:07;;;;;;;15.50;10.90;;;;;;;18.97;100.00;100723.88;220986;1268;141057;-87
2023/07/11 05:38:08;;;;;;;19.00;12.20;;;;;;;19.07;100.00;100719.30;221960;1268;139415;-89
2023/07/11 05:43:08;;;;;;;20.30;11.10;;;;;;;19.30;100.00;100721.27;221470;1265;139708;-88
2023/07/11 05:48:09;;;;;;;16.00;10.80;;;;;;;19.50;100.00;100720.55;222208;1267;139388;-86
2023/07/11 05:53:10;;;;;;;18.80;12.10;;;;;;;19.70;100.00;100718.84;221162;1266;140102;-87
2023/07/11 05:58:10;;;;;;;16.00;11.10;;;;;;;19.93;100.00;100725.92;222092;1267;98052;-87
2023/07/11 06:03:11;;;;;;;15.20;9.90;;;;;;;20.23;100.00;100721.33;221416;1266;141049;-84
2023/07/11 06:08:14;;;;;;;16.00;10.30;;;;;;;20.48;100.00;100727.20;222229;1264;139378;-84
2023/07/11 06:13:15;;;;;;;17.20;10.90;;;;;;;20.81;100.00;100735.23;221741;1264;140877;-83
2023/07/11 06:18:15;;;;;;;14.50;9.60;;;;;;;21.15;99.76;100741.72;221994;1266;139583;-85
2023/07/11 06:23:16;;;;;;;12.50;8.70;;;;;;;21.48;98.49;100741.98;221642;1266;140343;-86
2023/07/11 06:28:16;;;;;;;14.10;9.00;;;;;;;21.80;96.97;100737.72;222013;1266;97933;-84
2023/07/11 06:33:18;;;;;;;17.70;10.20;;;;;;;22.08;96.17;100727.73;221442;1266;141130;-86
2023/07/11 06:38:19;;;;;;;14.90;9.10;;;;;;;22.33;93.72;100726.05;221985;1264;139422;-85
2023/07/11 06:43:23;;;;;;;14.10;9.10;;;;;;;22.55;92.67;100730.13;221434;1264;142078;-87
2023/07/11 06:48:42;;;;;;;15.10;8.30;;;;;;;22.79;90.90;100733.02;221345;1267;139252;-87
2023/07/11 06:53:43;;;;;;;16.80;9.10;;;;;;;23.04;89.82;100731.85;220925;1269;140719;-85
2023/07/11 06:58:44;;;;;;;13.80;8.40;;;;;;;23.23;87.32;100731.52;221717;1267;97854;-84
2023/07/11 07:03:44;;;;;;;13.50;7.60;;;;;;;23.30;85.94;100736.31;221023;1267;139936;-87
2023/07/11 07:08:45;;;;;;;11.60;6.80;;;;;;;23.29;85.00;100734.52;221572;1267;139555;-86
2023/07/11 07:13:45;;;;;;;12.60;6.20;;;;;;;23.49;84.88;100730.73;221209;1267;140357;-88
2023/07/11 07:18:47;;;;;;;12.50;5.90;;;;;;;23.67;84.03;100730.74;221708;1266;139749;-86
2023/07/11 07:23:47;;;;;;;11.50;5.90;;;;;;;23.90;83.22;100731.34;221647;1266;232412;-88
2023/07/11 07:28:47;;;;;;;9.90;5.10;;;;;;;24.09;81.12;100725.83;222045;1264;97985;-88
2023/07/11 07:33:48;;;;;;;10.80;6.00;;;;;;;24.33;80.99;100718.20;221334;1268;139876;-87
2023/07/11 07:38:57;;;;;;;10.80;6.20;;;;;;;24.67;79.82;100716.02;221938;1265;139108;-90
2023/07/11 07:43:59;;;;;;;9.70;4.90;;;;;;;25.05;78.52;100706.30;221545;1266;139624;-90
2023/07/11 07:49:17;;;;;;;9.60;4.50;;;;;;;25.48;77.17;100704.40;222861;1266;97845;-90
2023/07/11 07:54:18;;;;;;;7.70;4.30;;;;;;;26.04;74.84;100701.05;220103;1267;138702;-92
2023/07/11 07:59:19;;;;;;;9.10;4.30;;;;;;;26.47;73.35;100694.90;219741;1265;141153;-95
2023/07/11 08:04:20;;;;;;;7.70;4.00;;;;;;;26.93;71.60;100695.27;220355;1265;97912;-91
2023/07/11 08:09:20;;;;;;;19.60;6.60;;;;;;;27.56;71.04;100688.45;219677;1265;141826;-91
2023/07/11 08:14:29;;;;;;;9.60;4.80;;;;;;;28.00;65.55;100694.55;221431;1265;139783;-95
2023/07/11 08:19:32;;;;;;;8.60;3.70;;;;;;;28.27;64.85;100693.42;220310;1269;140396;-96
2023/07/11 08:24:36;;;;;;;10.60;4.40;;;;;;;28.77;63.36;100696.75;221012;1265;138372;-93
2023/07/11 08:29:47;;;;;;;6.90;4.20;;;;;;;29.07;61.48;100702.26;220994;1265;139423;-94
2023/07/11 08:34:50;;;;;;;7.60;3.00;;;;;;;29.52;59.15;100701.02;221392;1265;103282;-94
2023/07/11 08:39:51;;;;;;;7.60;3.50;;;;;;;30.03;58.32;100701.73;220666;1264;139980;-92
2023/07/11 08:45:01;;;;;;;7.30;2.70;;;;;;;30.58;55.99;100704.10;221370;1264;138021;-91
2023/07/11 08:50:16;;;;;;;6.20;2.70;;;;;;;31.21;54.64;100690.66;220698;1265;140062;-92
2023/07/11 08:55:30;;;;;;;9.00;3.60;;;;;;;31.69;49.93;100687.43;223352;1265;139713;-94
2023/07/11 09:00:32;;;;;;;8.40;3.00;;;;;;;31.55;52.53;100686.26;222916;1265;140587;-93
2023/07/11 09:05:52;;;;;;;5.90;2.60;;;;;;;32.36;50.88;100687.27;220860;1265;139526;-92
2023/07/11 09:11:09;;;;;;;7.50;3.20;;;;;;;32.98;49.33;100688.77;219825;1269;139969;-92
2023/07/11 09:16:28;;;;;;;6.50;2.80;;;;;;;33.70;46.46;100684.90;221033;1267;138303;-95
2023/07/11 09:22:05;;;;;;;;;;;;;;;;;;;;;
2023/07/11 09:38:56;;;;;;;4.40;2.60;;;;;;;34.99;41.47;100682.63;222686;1260;639592;-95
2023/07/11 09:43:56;;;;;;;4.40;3.00;;;;;;;35.64;38.14;100673.80;221290;1265;137667;-96
2023/07/11 09:49:00;;;;;;;7.90;2.80;;;;;;;35.77;38.62;100672.39;223428;1266;140275;-92
2023/07/11 09:54:01;;;;;;;9.10;3.10;;;;;;;35.70;38.01;100667.83;224492;1263;137430;-90
2023/07/11 09:59:04;;;;;;;5.80;2.70;;;;;;;35.70;38.66;100665.11;224153;1267;138736;-93
2023/07/11 10:04:25;;;;;;;8.40;3.10;;;;;;;35.74;38.23;100662.04;224608;1263;137520;-89
2023/07/11 10:09:31;;;;;;;5.50;2.70;;;;;;;36.14;38.13;100651.88;223971;1263;138326;-92
2023/07/11 10:14:39;;;;;;;4.90;2.70;;;;;;;36.24;34.38;100648.98;224497;1263;136307;-88
2023/07/11 10:19:52;;;;;;;6.30;2.60;;;;;;;35.48;34.78;100654.58;224004;1263;138483;-91
2023/07/11 10:25:09;;;;;;;8.20;3.00;;;;;;;35.29;34.94;100648.83;224460;1264;137488;-90
2023/07/11 10:30:19;;;;;;;6.70;2.40;;;;;;;35.21;36.12;100647.57;223870;1268;138858;-90
2023/07/11 10:35:21;;;;;;;6.10;2.80;;;;;;;35.43;36.76;100649.29;224496;1266;99670;-89
2023/07/11 10:40:31;;;;;;;4.90;2.50;;;;;;;35.46;32.91;100640.06;223715;1265;140362;-91
2023/07/11 10:45:38;;;;;;;8.30;2.90;;;;;;;34.60;33.97;100636.13;224312;1268;137403;-88
2023/07/11 10:50:47;;;;;;;4.60;2.30;;;;;;;34.61;34.93;100637.71;223912;1267;139179;-88
2023/07/11 10:56:12;;;;;;;4.20;1.80;;;;;;;34.66;34.03;100634.33;224411;1264;137432;-89
2023/07/11 11:01:42;;;;;;;6.20;2.10;;;;;;;34.63;33.87;100627.24;224032;1268;139385;-90
2023/07/11 11:06:50;;;;;;;7.40;2.40;;;;;;;34.63;34.41;100628.19;224368;1268;137419;-86
2023/07/11 11:12:04;;;;;;;4.70;2.10;;;;;;;34.21;33.31;100619.33;223812;1264;139550;-90
2023/07/11 11:17:32;;;;;;;6.90;2.20;;;;;;;32.91;33.69;100612.34;224650;1265;93096;-93
2023/07/11 11:22:54;;;;;;;43.30;7.40;;;;;;;33.11;36.11;100603.89;224117;1266;139916;-95
2023/07/11 11:28:05;;;;;;;5.20;1.90;;;;;;;34.15;34.23;100607.96;224539;1266;137437;-89
2023/07/11 11:33:47;;;;;;;5.70;1.80;;;;;;;34.57;33.02;100606.27;223904;1264;139146;-86
2023/07/11 11:38:50;;;;;;;7.30;1.90;;;;;;;34.89;32.06;100602.48;224075;1264;137612;-91
2023/07/11 11:43:52;;;;;;;13.70;2.70;;;;;;;35.28;32.50;100599.38;224015;1264;139544;-90
2023/07/11 11:48:58;;;;;;;5.90;1.90;;;;;;;35.64;30.33;100589.36;223854;1264;139384;-88
2023/07/11 11:54:21;;;;;;;4.80;1.80;;;;;;;35.50;30.41;100591.62;224330;1264;137646;-90
2023/07/11 11:59:25;;;;;;;3.70;1.60;;;;;;;35.85;31.85;100582.84;224069;1264;138844;-92
2023/07/11 12:04:29;;;;;;;5.20;1.60;;;;;;;36.09;29.92;100581.86;224385;1263;137156;-91
2023/07/11 12:09:33;;;;;;;5.20;1.70;;;;;;;35.84;29.98;100575.09;224023;1263;139793;-91
2023/07/11 12:14:38;;;;;;;4.60;1.60;;;;;;;35.82;28.84;100572.38;224470;1263;137626;-90
2023/07/11 12:19:42;;;;;;;18.70;3.20;;;;;;;35.58;29.46;100569.23;223842;1264;138179;-90
2023/07/11 12:24:44;;;;;;;19.30;3.60;;;;;;;35.65;29.07;100564.77;224539;1263;137584;-89
2023/07/11 12:29:50;;;;;;;11.70;2.50;;;;;;;35.70;28.45;100554.71;223798;1264;140208;-91
2023/07/11 12:34:55;;;;;;;6.40;1.60;;;;;;;35.52;28.55;100554.35;224570;1264;99610;-89
2023/07/11 12:40:16;;;;;;;11.30;2.20;;;;;;;35.31;27.86;100557.13;223857;1264;139493;-96
2023/07/11 12:45:20;;;;;;;5.00;1.80;;;;;;;35.03;27.59;100556.89;224519;1264;137608;-88
2023/07/11 12:50:32;;;;;;;5.00;1.40;;;;;;;34.82;28.92;100551.63;223987;1264;139244;-88
2023/07/11 12:55:33;;;;;;;6.70;1.80;;;;;;;34.88;29.91;100547.95;224284;1264;137460;-91
2023/07/11 13:00:33;;;;;;;6.80;2.30;;;;;;;35.07;29.46;100550.41;223856;1264;139551;-90
2023/07/11 13:05:34;;;;;;;7.30;1.90;;;;;;;35.05;28.71;100545.98;224438;1264;137438;-91
2023/07/11 13:10:34;;;;;;;2.00;1.30;;;;;;;34.82;27.40;100544.97;223936;1264;138933;-89
2023/07/11 13:15:37;;;;;;;10.20;2.10;;;;;;;34.55;28.61;100537.94;224404;1263;137993;-87
2023/07/11 13:20:39;;;;;;;4.00;1.70;;;;;;;34.51;29.81;100540.80;223667;1266;139055;-90
2023/07/11 13:25:40;;;;;;;4.50;2.10;;;;;;;34.71;29.71;100530.39;224420;1264;137794;-87
2023/07/11 13:30:41;;;;;;;5.90;2.90;;;;;;;34.81;28.35;100527.09;223859;1264;140778;-87
2023/07/11 13:35:55;;;;;;;5.50;3.10;;;;;;;34.39;28.80;100528.64;224562;1264;137434;-88
2023/07/11 13:40:55;;;;;;;;;;;;;;;34.41;29.98;100524.34;223968;1264;141077;-88
2023/07/11 13:45:59;;;;;;;6.00;3.20;;;;;;;34.30;29.86;100524.96;224537;1264;123991;-88
2023/07/11 13:51:23;;;;;;;6.20;3.30;;;;;;;34.52;30.79;100520.04;223955;1264;139715;-89
2023/07/11 13:56:23;;;;;;;3.70;1.80;;;;;;;34.55;28.62;100520.06;224507;1264;137601;-87
2023/07/11 14:01:24;;;;;;;3.30;1.70;;;;;;;34.13;27.65;100514.86;224043;1264;141645;-90
2023/07/11 14:06:24;;;;;;;3.60;1.70;;;;;;;33.94;28.86;100515.91;224431;1264;138538;-91
2023/07/11 14:11:28;;;;;;;3.30;1.50;;;;;;;33.83;29.63;100507.93;223967;1264;141295;-89
2023/07/11 14:16:29;;;;;;;4.60;1.70;;;;;;;33.84;28.38;100500.08;224320;1264;137795;-90
2023/07/11 14:21:29;;;;;;;8.60;1.80;;;;;;;33.77;29.33;100496.44;223954;1264;140315;-91
2023/07/11 14:26:30;;;;;;;4.50;1.40;;;;;;;33.83;29.59;100494.63;224690;1264;137578;-92
2023/07/11 14:31:30;;;;;;;4.00;1.60;;;;;;;33.67;28.11;100495.63;224064;1263;137783;-90
2023/07/11 14:36:30;;;;;;;3.10;1.40;;;;;;;33.19;29.06;100491.27;224364;1263;137642;-91
2023/07/11 14:41:31;;;;;;;3.60;1.30;;;;;;;32.85;29.26;100487.52;223952;1263;139318;-89
2023/07/11 14:46:31;;;;;;;3.50;1.30;;;;;;;32.62;30.35;100482.95;224537;1263;137246;-90
2023/07/11 14:51:34;;;;;;;2.90;1.30;;;;;;;32.77;28.70;100479.23;223814;1265;139443;-86
2023/07/11 14:56:35;;;;;;;2.50;1.40;;;;;;;32.64;28.83;100469.70;224224;1265;137591;-90
2023/07/11 15:01:35;;;;;;;2.40;1.10;;;;;;;32.59;30.49;100472.60;223659;1265;139255;-88
2023/07/11 15:06:36;;;;;;;3.20;1.40;;;;;;;32.31;29.53;100468.29;224280;1265;137748;-88
2023/07/11 15:11:39;;;;;;;2.30;1.40;;;;;;;32.06;30.37;100466.71;223805;1265;140840;-90
2023/07/11 15:16:39;;;;;;;4.60;1.70;;;;;;;32.14;30.69;100461.61;224388;1265;100527;-88
2023/07/11 15:21:39;;;;;;;4.60;1.60;;;;;;;32.20;29.81;100459.11;223773;1265;139147;-89
2023/07/11 15:26:40;;;;;;;2.40;1.40;;;;;;;32.13;28.79;100458.00;224290;1265;137486;-88
2023/07/11 15:31:44;;;;;;;4.20;1.70;;;;;;;31.78;29.34;100452.99;223728;1265;139980;-93
2023/07/11 15:36:45;;;;;;;2.30;1.20;;;;;;;31.66;30.93;100444.99;224241;1265;138213;-91
2023/07/11 15:41:56;;;;;;;3.30;1.40;;;;;;;31.55;30.76;100441.81;223638;1265;142033;-87
2023/07/11 15:46:58;;;;;;;2.30;1.30;;;;;;;31.32;30.03;100437.44;224366;1265;92984;-88
2023/07/11 15:51:58;;;;;;;4.50;1.30;;;;;;;31.02;30.52;100431.34;223576;1266;138442;-92
2023/07/11 15:56:58;;;;;;;3.40;1.40;;;;;;;30.86;30.51;100424.08;224242;1265;137338;-86
2023/07/11 16:01:59;;;;;;;4.60;1.60;;;;;;;30.69;31.27;100418.17;223707;1265;139099;-89
2023/07/11 16:06:59;;;;;;;4.10;1.70;;;;;;;30.50;30.38;100417.74;224186;1265;136402;-87
2023/07/11 16:11:59;;;;;;;5.60;1.90;;;;;;;30.17;31.24;100415.96;223711;1265;140780;-87
2023/07/11 16:17:01;;;;;;;3.20;1.70;;;;;;;29.90;32.42;100416.81;224397;1265;92953;-86
2023/07/11 16:22:02;;;;;;;5.20;1.90;;;;;;;29.72;32.97;100410.96;223750;1265;139994;-87
2023/07/11 16:27:02;;;;;;;3.60;1.60;;;;;;;29.64;34.61;100411.64;224210;1265;137481;-88
2023/07/11 16:32:03;;;;;;;4.50;1.80;;;;;;;29.52;33.13;100406.88;223750;1265;141386;-86
2023/07/11 16:37:13;;;;;;;3.60;1.50;;;;;;;29.24;32.14;100403.59;224239;1265;137722;-87
2023/07/11 16:42:22;;;;;;;4.80;1.80;;;;;;;28.94;32.83;100412.67;223637;1266;140763;-87
2023/07/11 16:47:22;;;;;;;4.70;1.40;;;;;;;28.62;34.28;100411.98;224266;1265;92894;-88
2023/07/11 16:52:23;;;;;;;4.70;1.70;;;;;;;28.49;35.25;100407.22;223668;1265;139381;-88
2023/07/11 16:57:23;;;;;;;3.00;1.60;;;;;;;28.33;34.41;100407.70;224185;1265;137516;-87
2023/07/11 17:02:26;;;;;;;4.00;1.90;;;;;;;28.07;35.56;100402.36;223693;1265;140905;-88
2023/07/11 17:07:28;;;;;;;3.90;1.60;;;;;;;27.89;36.41;100399.52;224375;1265;137810;-88
2023/07/11 17:12:29;;;;;;;4.30;1.60;;;;;;;27.78;35.97;100404.82;223581;1265;140166;-87
2023/07/11 17:17:30;;;;;;;2.90;1.50;;;;;;;27.51;35.93;100394.46;224408;1265;92839;-87
2023/07/11 17:22:30;;;;;;;2.90;1.50;;;;;;;27.26;36.39;100392.53;223843;1265;139828;-88
2023/07/11 17:27:31;;;;;;;5.20;1.90;;;;;;;27.05;36.68;100386.63;224296;1265;138782;-89
2023/07/11 17:32:31;;;;;;;3.20;1.40;;;;;;;26.95;38.45;100386.52;223657;1265;141512;-89
2023/07/11 17:37:35;;;;;;;4.50;1.60;;;;;;;26.81;38.94;100383.05;224147;1265;138564;-87
2023/07/11 17:42:37;;;;;;;7.10;1.60;;;;;;;26.66;39.28;100381.27;223660;1265;140166;-91
2023/07/11 17:47:38;;;;;;;3.90;1.90;;;;;;;26.58;40.02;100376.97;224192;1265;137545;-92
2023/07/11 17:52:39;;;;;;;4.40;1.60;;;;;;;26.48;39.82;100373.13;223732;1265;139531;-91
2023/07/11 17:57:40;;;;;;;5.20;2.20;;;;;;;26.27;40.67;100373.70;224346;1265;137712;-93
2023/07/11 18:02:46;;;;;;;4.30;1.70;;;;;;;26.02;41.72;100370.66;223811;1265;138766;-95
2023/07/11 18:07:49;;;;;;;3.70;1.30;;;;;;;25.86;42.08;100370.11;224203;1265;138345;-93
2023/07/11 18:12:50;;;;;;;4.10;1.70;;;;;;;25.74;42.16;100364.91;223753;1265;139680;-93
2023/07/11 18:17:54;;;;;;;3.30;1.80;;;;;;;25.60;41.92;100361.58;224258;1265;137792;-92
2023/07/11 18:22:55;;;;;;;4.00;1.50;;;;;;;25.41;41.60;100360.27;223649;1265;139155;-91
2023/07/11 18:27:57;;;;;;;4.20;1.70;;;;;;;25.29;42.27;100358.49;224140;1265;137758;-91
2023/07/11 18:32:58;;;;;;;3.30;1.70;;;;;;;25.12;43.83;100355.06;223663;1265;140533;-91
2023/07/11 18:37:59;;;;;;;3.90;1.70;;;;;;;24.98;43.49;100354.85;224155;1265;137715;-93
2023/07/11 18:43:01;;;;;;;3.40;1.60;;;;;;;24.80;43.54;100348.98;223552;1265;139878;-91
2023/07/11 18:48:02;;;;;;;4.30;2.00;;;;;;;24.62;43.78;100350.39;224183;1265;137905;-92
2023/07/11 18:53:03;;;;;;;4.30;2.00;;;;;;;24.50;44.89;100352.17;223743;1265;139362;-92
2023/07/11 18:58:05;;;;;;;4.50;1.70;;;;;;;24.33;45.75;100347.74;224190;1265;137523;-91
2023/07/11 19:03:09;;;;;;;5.50;2.60;;;;;;;24.22;46.51;100343.19;223504;1265;138924;-91
2023/07/11 19:08:15;;;;;;;9.30;4.60;;;;;;;24.03;46.53;100343.20;224132;1265;137664;-93
2023/07/11 19:13:15;;;;;;;8.20;3.50;;;;;;;23.85;47.39;100343.42;223671;1265;139604;-91
2023/07/11 19:18:20;;;;;;;20.80;10.80;;;;;;;23.69;47.46;100344.31;224220;1265;137662;-93
2023/07/11 19:23:25;;;;;;;8.70;4.10;;;;;;;23.47;47.95;100346.88;223733;1265;139341;-90
2023/07/11 19:28:30;;;;;;;11.90;6.00;;;;;;;23.40;47.87;100351.48;224171;1265;137352;-91
2023/07/11 19:33:30;;;;;;;11.10;5.70;;;;;;;23.28;48.86;100354.80;223649;1265;140228;-91
2023/07/11 19:38:31;;;;;;;10.80;6.30;;;;;;;23.09;48.96;100359.44;224110;1265;137887;-91
2023/07/11 19:43:31;;;;;;;8.90;4.90;;;;;;;23.00;50.14;100356.23;223636;1265;139137;-92
2023/07/11 19:48:32;;;;;;;7.00;3.30;;;;;;;22.92;51.09;100353.39;224225;1265;137835;-92
2023/07/11 19:53:33;;;;;;;7.40;3.20;;;;;;;22.85;51.51;100346.54;223645;1265;138613;-92
2023/07/11 19:58:34;;;;;;;6.80;3.10;;;;;;;22.79;50.46;100350.25;224280;1265;94217;-91
2023/07/11 20:03:35;;;;;;;9.20;3.10;;;;;;;22.70;49.64;100351.23;223610;1265;138560;-92
2023/07/11 20:08:37;;;;;;;5.40;2.80;;;;;;;22.64;50.76;100350.48;224120;1265;137956;-91
2023/07/11 20:13:44;;;;;;;5.40;2.40;;;;;;;22.56;51.08;100343.58;223631;1265;139124;-91
2023/07/11 20:18:45;;;;;;;;;;;;;;;22.47;50.11;100337.58;224165;1265;138141;-91
2023/07/11 20:23:49;;;;;;;4.50;2.30;;;;;;;22.40;49.64;100331.80;223695;1265;125211;-91
2023/07/11 20:28:50;;;;;;;11.40;3.50;;;;;;;22.33;49.97;100328.05;224220;1265;95042;-90
2023/07/11 20:33:53;;;;;;;6.50;2.30;;;;;;;22.25;49.44;100322.71;223490;1265;139429;-89
2023/07/11 20:38:56;;;;;;;6.10;2.40;;;;;;;22.16;49.60;100321.77;223739;1265;139856;-90
2023/07/11 20:44:00;;;;;;;7.60;2.40;;;;;;;22.08;49.73;100314.08;224120;1265;137708;-88
2023/07/11 20:49:01;;;;;;;6.10;2.40;;;;;;;21.97;49.90;100306.63;223746;1265;139843;-90
2023/07/11 20:54:01;;;;;;;9.30;2.90;;;;;;;21.89;50.23;100301.34;224174;1265;137830;-90
2023/07/11 20:59:02;;;;;;;7.20;2.50;;;;;;;21.78;50.35;100294.20;223801;1265;139987;-88
2023/07/11 21:04:03;;;;;;;5.50;2.50;;;;;;;21.71;50.87;100292.23;224147;1265;137793;-91
2023/07/11 21:09:06;;;;;;;5.80;2.40;;;;;;;21.63;51.34;100287.06;223686;1265;139033;-91
2023/07/11 21:14:07;;;;;;;5.40;2.40;;;;;;;21.53;51.75;100277.17;224139;1265;137780;-90
2023/07/11 21:19:20;;;;;;;6.90;2.70;;;;;;;21.45;51.75;100271.27;223717;1265;139854;-90
2023/07/11 21:24:20;;;;;;;7.70;2.60;;;;;;;21.38;52.23;100260.36;224175;1265;138238;-90
2023/07/11 21:29:20;;;;;;;4.90;2.20;;;;;;;21.29;52.47;100252.27;223781;1265;139521;-88
2023/07/11 21:34:22;;;;;;;7.10;2.60;;;;;;;21.24;52.56;100247.66;224241;1265;137532;-90
2023/07/11 21:39:22;;;;;;;7.80;3.20;;;;;;;21.14;52.96;100229.95;223510;1265;297305;-90
2023/07/11 21:44:23;;;;;;;7.40;2.80;;;;;;;21.05;53.36;100218.27;224260;1265;137734;-88
2023/07/11 21:49:23;;;;;;;5.50;2.80;;;;;;;20.95;53.64;100208.77;223780;1265;139776;-91
2023/07/11 21:54:24;;;;;;;6.10;2.90;;;;;;;20.88;54.03;100202.28;224180;1265;138548;-90
2023/07/11 21:59:24;;;;;;;5.80;2.90;;;;;;;20.82;54.16;100200.42;223767;1265;138778;-90
2023/07/11 22:04:25;;;;;;;10.80;2.90;;;;;;;20.75;54.45;100189.85;224269;1265;137783;-89
2023/07/11 22:09:25;;;;;;;6.00;2.50;;;;;;;20.70;54.43;100179.64;223728;1265;141319;-90
2023/07/11 22:14:26;;;;;;;7.00;3.20;;;;;;;20.62;55.16;100171.91;224231;1265;137988;-89
2023/07/11 22:19:26;;;;;;;5.00;2.50;;;;;;;20.54;55.15;100159.98;223647;1265;139374;-90
2023/07/11 22:24:27;;;;;;;6.50;2.70;;;;;;;20.48;55.36;100157.95;224213;1265;137909;-91
2023/07/11 22:29:28;;;;;;;8.60;3.10;;;;;;;20.43;55.57;100155.09;223727;1265;142706;-89
2023/07/11 22:34:28;;;;;;;5.40;2.40;;;;;;;20.37;56.01;100167.98;224267;1265;138447;-89
2023/07/11 22:39:28;;;;;;;5.90;2.70;;;;;;;20.32;56.08;100195.31;223586;1265;140530;-89
2023/07/11 22:44:29;;;;;;;6.50;2.80;;;;;;;20.25;56.48;100218.77;224261;1265;137890;-90
2023/07/11 22:49:29;;;;;;;6.10;2.80;;;;;;;20.13;57.54;100239.88;223700;1265;140659;-90
2023/07/11 22:54:30;;;;;;;6.80;3.10;;;;;;;20.01;58.84;100266.09;224235;1265;137590;-89
2023/07/11 22:59:30;;;;;;;5.50;2.30;;;;;;;19.86;59.73;100252.98;223741;1265;140069;-89
2023/07/11 23:04:31;;;;;;;6.40;3.10;;;;;;;19.73;60.19;100218.75;224171;1265;138403;-88
2023/07/11 23:09:32;;;;;;;6.50;3.40;;;;;;;19.69;59.80;100194.71;223667;1265;141253;-88
2023/07/11 23:14:32;;;;;;;7.20;3.00;;;;;;;19.65;59.29;100195.77;224226;1265;137896;-89
2023/07/11 23:19:34;;;;;;;10.60;3.30;;;;;;;19.60;58.91;100187.92;223665;1265;139445;-90
2023/07/11 23:24:35;;;;;;;9.60;3.70;;;;;;;19.57;58.98;100195.75;224188;1265;137814;-90
2023/07/11 23:29:35;;;;;;;11.30;3.40;;;;;;;19.54;58.95;100203.98;223675;1265;139334;-90
2023/07/11 23:34:36;;;;;;;7.60;3.20;;;;;;;19.50;59.22;100218.62;224320;1265;94311;-89
2023/07/11 23:39:36;;;;;;;7.90;3.20;;;;;;;19.45;59.83;100198.27;223733;1265;139802;-89
2023/07/11 23:44:36;;;;;;;7.40;2.80;;;;;;;19.40;60.18;100188.04;224211;1265;137677;-88
2023/07/11 23:49:37;;;;;;;7.80;3.20;;;;;;;19.35;59.91;100179.64;223648;1265;139547;-89
2023/07/11 23:54:37;;;;;;;8.20;3.20;;;;;;;19.31;59.58;100171.96;224235;1265;137964;-89
2023/07/11 23:59:37;;;;;;;7.10;3.50;;;;;;;19.27;59.71;100160.83;223653;1266;139227;-88
